Pagrindinis puslapis
METAR-TAF:

METAR-TAF

Oro uostai :

Budapešto Ferenco Listo tarptautinis oro uostas

Budapeštas, Vengrija

platuma: 47-26N, ilguma: 019-16E, Aukštis: 151 m

Dabartinis oras

Ataskaita buvo paskelbta 35 minutes, ne 23:00 UTC
Vėjas 1 kt iš Rytų/Šiaurės Rytų
Temperatūra 1°C
Drėgmė 75%
Slėgis 1032 hPa
Matomumas 10 km arba daugiau

METAR: LHBP 072300Z AUTO 06001KT 9999 NCD 01/M03 Q1032 NOSIG

Laikas: 01:35 (23:35 UTC)

Prognozė

Ataskaita buvo paskelbta 20 minutes, ne 23:15 UTC
Prognozė galioja nuo 08 metu 00 UTC su 08 metu 24 UTC
Vėjas 3 kt nuo kintamojo kryptimis
Matomumas 10 km arba daugiau
nėra debesų žemiau 1500 m ir nėra kamuolinių lietaus debesų

TAF: LHBP 072315Z 0800/0824 VRB03KT CAVOK

Orai ataskaitas ir orų prognozės (METAR, TAF).

turimą stotys yra geltonos ir raudonos taškus žemėlapyje.

Perkelti pele per norėdami pamatyti stoties vardą.

Tada spustelėkite, norėdami matyti oro stebėjimo ir prognozės.

Norėdami pakeisti žemėlapį: spustelėkite ant žalios mygtukų su juodo kryžiaus žemyn,; žalią mygtuką su brūkšneliu, jei norite nutolinti; arba žalių rodyklių gretimoms žemėlapius.


METAR-TAF: